Jumpertown, Mississippi
Current Conditions -  °F | °C
As of 2:35 AM on Saturday 20 Dec 2014 (Local Time) from KCRX Reporting Station
Broken Clouds Broken Clouds  
Wind Chill:   Ceiling: 11000
Heat Index:   Visibility: 10mi
Dew Point:   Wind: 5mph
Humidity: 81%   Direction: 360°N
Pressure: 30.21"   Gusts: NA
Location:  34.6741°N, 88.5234°W
Report Text: KCRX 200835Z AUTO 36004KT 10SM BKN110 03/00 A3021 RMK AO2
Loading
Personal Weather Stations






























Interactive Weather Map New forecast layout! Learn more

10-Day Weather Forecast

Advertisements
Track Severe Weather on mobile